createdAt,value
2024-03-05T00:01:38.830Z,7.05
2024-03-05T00:04:09.531Z,6.98
2024-03-05T00:06:39.015Z,6.95
2024-03-05T00:09:06.819Z,7.16
2024-03-05T00:11:34.734Z,7.40
2024-03-05T00:14:02.595Z,7.84
2024-03-05T00:16:30.612Z,7.60
2024-03-05T00:18:58.244Z,7.23
2024-03-05T00:21:26.152Z,7.42
2024-03-05T00:23:53.849Z,7.62
2024-03-05T00:26:22.939Z,7.69
2024-03-05T00:28:50.987Z,7.71
2024-03-05T00:31:18.834Z,7.40
2024-03-05T00:33:47.966Z,7.22
2024-03-05T00:36:15.689Z,7.12
2024-03-05T00:38:43.499Z,7.14
2024-03-05T00:41:11.198Z,6.97
2024-03-05T00:43:38.904Z,6.98
2024-03-05T00:46:07.345Z,7.29
2024-03-05T00:48:35.211Z,7.30
2024-03-05T00:51:03.669Z,7.01
2024-03-05T00:53:31.635Z,7.13
2024-03-05T00:55:59.327Z,6.96
2024-03-05T00:58:27.613Z,6.91
2024-03-05T01:00:55.725Z,7.44
2024-03-05T01:03:23.351Z,7.18
2024-03-05T01:05:50.980Z,7.01
2024-03-05T01:08:18.655Z,6.93
2024-03-05T01:10:47.214Z,7.15
2024-03-05T01:13:15.813Z,7.08
2024-03-05T01:15:43.518Z,6.99
2024-03-05T01:18:11.270Z,6.99
2024-03-05T01:20:42.777Z,6.94
2024-03-05T01:23:13.339Z,7.05
2024-03-05T01:25:41.266Z,7.31
2024-03-05T01:28:09.154Z,7.68
2024-03-05T01:30:38.152Z,7.44
2024-03-05T01:33:07.155Z,7.25
2024-03-05T01:35:34.791Z,7.14
2024-03-05T01:38:02.414Z,7.04
2024-03-05T01:40:30.248Z,7.14
2024-03-05T01:42:59.033Z,7.49
2024-03-05T01:45:27.218Z,7.84
2024-03-05T01:47:54.962Z,8.07
2024-03-05T01:50:23.917Z,8.20
2024-03-05T01:52:51.853Z,8.28
2024-03-05T01:55:20.509Z,8.42
2024-03-05T01:57:49.807Z,8.58
2024-03-05T02:00:17.625Z,8.77
2024-03-05T02:02:45.372Z,8.47
2024-03-05T02:05:14.023Z,7.68
2024-03-05T02:07:42.179Z,7.34
2024-03-05T02:10:10.351Z,7.53
2024-03-05T02:12:38.240Z,7.58
2024-03-05T02:15:06.306Z,7.30
2024-03-05T02:17:33.975Z,7.23
2024-03-05T02:20:02.498Z,7.26
2024-03-05T02:22:30.150Z,7.07
2024-03-05T02:24:57.754Z,7.01
2024-03-05T02:27:30.460Z,7.02
2024-03-05T02:30:04.169Z,7.02
2024-03-05T02:32:32.227Z,7.55
2024-03-05T02:35:00.041Z,7.25
2024-03-05T02:37:28.019Z,7.09
2024-03-05T02:39:55.675Z,6.98
2024-03-05T02:42:24.078Z,6.91
2024-03-05T02:44:51.670Z,6.91
2024-03-05T02:47:19.275Z,7.07
2024-03-05T02:49:47.134Z,7.01
2024-03-05T02:52:15.290Z,6.94
2024-03-05T02:54:42.819Z,6.86
2024-03-05T02:57:10.438Z,6.84
2024-03-05T02:59:38.045Z,7.15
2024-03-05T03:02:06.413Z,7.36
2024-03-05T03:04:34.130Z,7.14
2024-03-05T03:07:01.757Z,6.98
2024-03-05T03:09:29.963Z,6.90
2024-03-05T03:11:58.182Z,6.85
2024-03-05T03:14:25.749Z,6.81
2024-03-05T03:16:53.758Z,7.01
2024-03-05T03:19:21.475Z,7.02
2024-03-05T03:21:49.049Z,7.05
2024-03-05T03:24:16.668Z,7.23
2024-03-05T03:26:44.288Z,7.29
2024-03-05T03:29:14.890Z,7.22
2024-03-05T03:31:48.243Z,7.15
2024-03-05T03:34:18.848Z,7.14
2024-03-05T03:36:46.519Z,7.01
2024-03-05T03:39:25.003Z,6.88
2024-03-05T03:41:54.842Z,6.85
2024-03-05T03:44:23.777Z,6.79
2024-03-05T03:46:51.869Z,6.82
2024-03-05T03:49:21.316Z,6.77
2024-03-05T03:51:48.961Z,6.74
2024-03-05T03:54:16.571Z,6.71
2024-03-05T03:56:44.193Z,6.71
2024-03-05T03:59:12.014Z,6.71
2024-03-05T04:01:39.662Z,6.70
2024-03-05T04:04:07.269Z,6.72
2024-03-05T04:06:34.873Z,6.87
2024-03-05T04:09:02.501Z,6.78
2024-03-05T04:11:30.127Z,6.75
2024-03-05T04:13:58.492Z,6.70
2024-03-05T04:16:26.942Z,6.69
2024-03-05T04:18:55.095Z,6.70
2024-03-05T04:21:22.807Z,6.73
2024-03-05T04:23:50.660Z,6.98
2024-03-05T04:26:24.668Z,7.19
2024-03-05T04:28:54.219Z,7.07
2024-03-05T04:31:25.055Z,7.01
2024-03-05T04:34:00.338Z,6.95
2024-03-05T04:36:27.977Z,6.88
2024-03-05T04:38:55.552Z,6.76
2024-03-05T04:41:23.628Z,7.05
2024-03-05T04:43:51.762Z,6.92
2024-03-05T04:46:19.717Z,6.93
2024-03-05T04:48:49.129Z,6.95
2024-03-05T04:51:16.794Z,6.93
2024-03-05T04:53:44.619Z,7.07
2024-03-05T04:56:13.676Z,6.93
2024-03-05T04:58:41.316Z,6.73
2024-03-05T05:01:08.970Z,6.69
2024-03-05T05:03:36.847Z,6.95
2024-03-05T05:06:04.556Z,6.99
2024-03-05T05:08:32.154Z,6.80
2024-03-05T05:11:00.074Z,6.71
2024-03-05T05:13:27.945Z,6.61
2024-03-05T05:15:59.754Z,6.57
2024-03-05T05:18:27.351Z,6.54
2024-03-05T05:20:54.949Z,6.54
2024-03-05T05:23:22.548Z,6.52
2024-03-05T05:25:50.150Z,6.53
2024-03-05T05:28:17.803Z,6.57
2024-03-05T05:30:45.496Z,6.63
2024-03-05T05:33:13.471Z,6.82
2024-03-05T05:35:41.476Z,6.74
2024-03-05T05:38:12.049Z,6.65
2024-03-05T05:40:39.729Z,6.58
2024-03-05T05:43:09.378Z,6.51
2024-03-05T05:45:37.091Z,6.51
2024-03-05T05:48:05.053Z,6.57
2024-03-05T05:50:33.085Z,6.51
2024-03-05T05:53:01.264Z,6.51
2024-03-05T05:55:29.857Z,6.48
2024-03-05T05:57:58.552Z,6.48
2024-03-05T06:00:34.501Z,6.49
2024-03-05T06:03:06.018Z,6.46
2024-03-05T06:05:36.417Z,6.46
2024-03-05T06:08:16.151Z,6.48
2024-03-05T06:10:44.305Z,6.46
2024-03-05T06:13:12.315Z,6.44
2024-03-05T06:15:40.230Z,6.43
2024-03-05T06:18:08.069Z,6.43
2024-03-05T06:20:35.709Z,6.45
2024-03-05T06:23:04.106Z,6.45
2024-03-05T06:25:31.821Z,6.47
2024-03-05T06:28:00.533Z,6.44
2024-03-05T06:30:28.073Z,6.46
2024-03-05T06:32:55.798Z,6.46
2024-03-05T06:35:25.332Z,6.46
2024-03-05T06:37:55.082Z,6.45
2024-03-05T06:40:25.266Z,6.46
2024-03-05T06:42:54.258Z,6.46
2024-03-05T06:45:29.372Z,6.47
2024-03-05T06:50:35.718Z,6.47
2024-03-05T06:53:22.440Z,6.46
2024-03-05T06:56:09.028Z,6.51
2024-03-05T06:58:37.347Z,6.49
2024-03-05T07:01:08.628Z,6.60
2024-03-05T07:03:36.490Z,6.62
2024-03-05T07:06:14.664Z,6.57
2024-03-05T07:08:45.883Z,6.50
2024-03-05T07:11:14.387Z,6.60
2024-03-05T07:13:45.035Z,6.57
2024-03-05T07:16:18.002Z,6.54
2024-03-05T07:18:52.357Z,6.58
2024-03-05T07:21:21.889Z,6.55
2024-03-05T07:23:50.358Z,6.63
2024-03-05T07:26:18.157Z,6.52
2024-03-05T07:28:46.362Z,6.65
2024-03-05T07:31:15.207Z,6.52
2024-03-05T07:33:43.372Z,6.48
2024-03-05T07:36:10.934Z,6.46
2024-03-05T07:38:39.809Z,6.46
2024-03-05T07:41:17.513Z,6.44
2024-03-05T07:43:50.807Z,6.49
2024-03-05T07:46:21.234Z,6.50
2024-03-05T07:48:48.816Z,6.48
2024-03-05T07:51:23.949Z,6.47
2024-03-05T07:53:52.979Z,6.50
2024-03-05T07:56:20.559Z,6.84
2024-03-05T07:58:48.199Z,6.80
2024-03-05T08:01:15.900Z,6.73
2024-03-05T08:03:43.506Z,6.75
2024-03-05T08:06:11.091Z,6.68
2024-03-05T08:08:38.761Z,6.98
2024-03-05T08:11:06.430Z,7.01
2024-03-05T08:13:37.148Z,7.00
2024-03-05T08:16:05.920Z,7.22
2024-03-05T08:18:33.772Z,6.97
2024-03-05T08:21:03.000Z,6.87
2024-03-05T08:23:30.725Z,7.48
2024-03-05T08:25:58.432Z,7.96
2024-03-05T08:28:26.229Z,7.62
2024-03-05T08:30:55.323Z,7.21
2024-03-05T08:33:25.480Z,7.06
2024-03-05T08:35:53.365Z,7.03
2024-03-05T08:38:22.401Z,7.00
2024-03-05T08:40:51.508Z,7.03
2024-03-05T08:43:19.409Z,7.09
2024-03-05T08:45:48.088Z,7.12
2024-03-05T08:48:15.774Z,7.22
2024-03-05T08:50:43.402Z,7.25
2024-03-05T08:53:11.296Z,7.36
2024-03-05T08:55:40.423Z,7.54
2024-03-05T08:58:10.572Z,7.80
2024-03-05T09:00:43.291Z,7.60
2024-03-05T09:03:13.462Z,7.64
2024-03-05T09:05:44.372Z,7.91
2024-03-05T09:08:15.327Z,7.83
2024-03-05T09:10:44.638Z,7.94
2024-03-05T09:13:12.281Z,7.97
2024-03-05T09:15:43.767Z,8.00
2024-03-05T09:18:14.731Z,8.05
2024-03-05T09:20:43.498Z,8.07
2024-03-05T09:23:11.454Z,8.13
2024-03-05T09:25:43.556Z,8.27
2024-03-05T09:28:12.193Z,8.30
2024-03-05T09:30:40.532Z,8.31
2024-03-05T09:33:11.676Z,8.49
2024-03-05T09:35:40.325Z,8.50
2024-03-05T09:38:08.780Z,8.98
2024-03-05T09:40:36.807Z,8.77
2024-03-05T09:43:05.745Z,8.78
2024-03-05T09:45:37.709Z,9.17
2024-03-05T09:48:06.306Z,9.54
2024-03-05T09:50:34.799Z,9.31
2024-03-05T09:53:02.735Z,9.20
2024-03-05T09:55:32.095Z,9.92
2024-03-05T09:58:04.945Z,10.43
2024-03-05T10:00:33.235Z,10.31
2024-03-05T10:03:00.884Z,10.47
2024-03-05T10:05:29.043Z,10.67
2024-03-05T10:07:56.669Z,10.28
2024-03-05T10:10:26.816Z,10.70
2024-03-05T10:12:54.358Z,10.72
2024-03-05T10:15:27.019Z,11.14
2024-03-05T10:17:56.556Z,11.24
2024-03-05T10:20:28.638Z,10.99
2024-03-05T10:22:59.755Z,10.73
2024-03-05T10:25:31.836Z,10.58
2024-03-05T10:28:00.985Z,11.13
2024-03-05T10:30:34.166Z,11.47
2024-03-05T10:33:03.948Z,11.76
2024-03-05T10:35:33.271Z,11.47
2024-03-05T10:38:01.967Z,11.56
2024-03-05T10:40:33.613Z,11.65
2024-03-05T10:43:02.510Z,11.09
2024-03-05T10:45:31.933Z,10.27
2024-03-05T10:48:00.499Z,9.93
2024-03-05T10:50:29.184Z,9.93
2024-03-05T10:52:57.773Z,10.09
2024-03-05T10:55:26.160Z,10.02
2024-03-05T10:58:13.325Z,9.87
2024-03-05T11:00:43.111Z,10.03
2024-03-05T11:03:11.651Z,10.43
2024-03-05T11:05:49.247Z,11.01
2024-03-05T11:08:22.950Z,11.31
2024-03-05T11:11:11.334Z,11.00
2024-03-05T11:13:40.517Z,11.15
2024-03-05T11:16:09.750Z,10.83
2024-03-05T11:18:38.531Z,11.07
2024-03-05T11:21:10.898Z,11.12
2024-03-05T11:23:41.665Z,10.55
2024-03-05T11:26:17.886Z,10.31
2024-03-05T11:28:45.561Z,10.36
2024-03-05T11:31:21.081Z,10.15
2024-03-05T11:33:58.732Z,10.42
2024-03-05T11:36:26.340Z,10.70
2024-03-05T11:39:02.929Z,11.54
2024-03-05T11:41:37.939Z,10.73
2024-03-05T11:44:06.074Z,10.01
2024-03-05T11:46:39.885Z,9.66
2024-03-05T11:49:08.162Z,9.68
2024-03-05T11:51:36.071Z,9.88
2024-03-05T11:54:03.672Z,9.91
2024-03-05T11:56:31.579Z,9.82
2024-03-05T11:58:59.266Z,9.90
2024-03-05T12:01:27.150Z,9.97
2024-03-05T12:04:04.909Z,9.90
2024-03-05T12:06:32.608Z,9.78
2024-03-05T12:09:20.329Z,9.75
2024-03-05T12:12:05.086Z,9.77
2024-03-05T12:14:34.316Z,9.94
2024-03-05T12:17:05.251Z,9.77
2024-03-05T12:19:33.441Z,9.63
2024-03-05T12:22:01.641Z,9.67
2024-03-05T12:24:29.724Z,9.72
2024-03-05T12:26:58.438Z,9.74
2024-03-05T12:29:32.124Z,9.76
2024-03-05T12:32:03.057Z,9.84
2024-03-05T12:34:30.797Z,9.92
2024-03-05T12:36:58.373Z,9.97
2024-03-05T12:39:26.123Z,9.93
2024-03-05T12:42:06.949Z,9.95
2024-03-05T12:44:35.162Z,9.94
2024-03-05T12:47:14.350Z,9.89
2024-03-05T12:49:45.889Z,10.02
2024-03-05T12:52:18.542Z,10.09
2024-03-05T12:54:46.424Z,10.00
2024-03-05T12:57:30.938Z,10.08
2024-03-05T13:00:02.068Z,10.07
2024-03-05T13:02:30.180Z,10.07
2024-03-05T13:04:59.354Z,10.72
2024-03-05T13:07:27.955Z,11.19
2024-03-05T13:09:55.867Z,10.56
2024-03-05T13:12:24.701Z,10.91
2024-03-05T13:14:52.474Z,11.18
2024-03-05T13:17:20.962Z,10.87
2024-03-05T13:19:48.600Z,11.17
2024-03-05T13:22:16.568Z,10.96
2024-03-05T13:24:44.592Z,10.71
2024-03-05T13:27:13.708Z,10.30
2024-03-05T13:29:41.499Z,10.22
2024-03-05T13:32:09.172Z,10.11
2024-03-05T13:34:36.822Z,10.41
2024-03-05T13:37:04.699Z,10.72
2024-03-05T13:39:32.608Z,10.51
2024-03-05T13:42:00.294Z,10.58
2024-03-05T13:44:28.718Z,10.16
2024-03-05T13:46:56.382Z,9.84
2024-03-05T13:49:25.523Z,9.70
2024-03-05T13:51:53.445Z,9.57
2024-03-05T13:54:21.068Z,9.59
2024-03-05T13:56:50.311Z,9.70
2024-03-05T13:59:18.227Z,9.78
2024-03-05T14:01:45.819Z,9.88
2024-03-05T14:04:13.451Z,10.55
2024-03-05T14:06:42.519Z,10.22
2024-03-05T14:09:10.720Z,10.15
2024-03-05T14:11:41.726Z,9.84
2024-03-05T14:14:09.924Z,9.96
2024-03-05T14:16:40.054Z,9.69
2024-03-05T14:19:08.950Z,9.56
2024-03-05T14:21:37.158Z,9.73
2024-03-05T14:24:05.018Z,9.58
2024-03-05T14:26:32.715Z,9.69
2024-03-05T14:29:05.298Z,9.44
2024-03-05T14:31:34.586Z,9.45
2024-03-05T14:34:02.480Z,9.63
2024-03-05T14:36:32.639Z,9.80
2024-03-05T14:39:03.028Z,9.98
2024-03-05T14:41:30.834Z,9.91
2024-03-05T14:43:58.574Z,9.66
2024-03-05T14:46:26.498Z,9.63
2024-03-05T14:48:54.300Z,9.49
2024-03-05T14:51:25.457Z,10.06
2024-03-05T14:53:59.545Z,10.63
2024-03-05T14:56:31.367Z,10.21
2024-03-05T14:58:59.270Z,10.25
2024-03-05T15:01:27.200Z,10.49
2024-03-05T15:03:54.951Z,9.95
2024-03-05T15:06:22.742Z,10.26
2024-03-05T15:08:50.675Z,9.78
2024-03-05T15:11:18.668Z,9.58
2024-03-05T15:13:46.443Z,9.54
2024-03-05T15:16:15.123Z,9.23
2024-03-05T15:18:42.844Z,9.31
2024-03-05T15:21:15.492Z,9.25
2024-03-05T15:23:43.809Z,9.11
2024-03-05T15:26:11.991Z,9.23
2024-03-05T15:28:42.356Z,9.22
2024-03-05T15:31:11.897Z,9.26
2024-03-05T15:33:40.267Z,10.40
2024-03-05T15:36:08.631Z,11.76
2024-03-05T15:38:36.616Z,11.98
2024-03-05T15:41:08.034Z,11.91
2024-03-05T15:43:37.134Z,11.80
2024-03-05T15:46:07.890Z,11.71
2024-03-05T15:48:35.787Z,11.88
2024-03-05T15:51:04.404Z,11.86
2024-03-05T15:53:32.305Z,11.72
2024-03-05T15:56:02.943Z,11.73
2024-03-05T15:58:57.251Z,11.62
2024-03-05T16:01:27.277Z,10.97
2024-03-05T16:04:09.238Z,10.84
2024-03-05T16:06:43.113Z,10.83
2024-03-05T16:09:10.804Z,10.87
2024-03-05T16:11:38.765Z,11.13
2024-03-05T16:14:06.925Z,11.57
2024-03-05T16:16:38.961Z,11.91
2024-03-05T16:19:07.510Z,11.98
2024-03-05T16:21:35.365Z,12.41
2024-03-05T16:24:06.265Z,12.42
2024-03-05T16:26:34.291Z,11.97
2024-03-05T16:29:02.095Z,11.72
2024-03-05T16:31:29.979Z,11.63
2024-03-05T16:34:02.345Z,11.89
2024-03-05T16:36:30.162Z,11.79
2024-03-05T16:38:57.963Z,11.84
2024-03-05T16:41:25.671Z,11.54
2024-03-05T16:43:55.215Z,10.14
2024-03-05T16:46:22.985Z,9.70
2024-03-05T16:48:50.720Z,9.93
2024-03-05T16:51:18.412Z,10.86
2024-03-05T16:53:46.279Z,11.32
2024-03-05T16:56:14.072Z,11.42
2024-03-05T16:58:43.189Z,11.52
2024-03-05T17:01:13.986Z,10.79
2024-03-05T17:03:46.285Z,10.99
2024-03-05T17:06:20.250Z,10.87
2024-03-05T17:08:50.620Z,11.01
2024-03-05T17:11:18.858Z,10.79
2024-03-05T17:13:49.607Z,10.97
2024-03-05T17:16:18.642Z,10.82
2024-03-05T17:18:46.770Z,10.89
2024-03-05T17:21:14.796Z,10.88
2024-03-05T17:23:46.394Z,10.93
2024-03-05T17:26:16.663Z,10.98
2024-03-05T17:28:44.996Z,10.83
2024-03-05T17:31:13.164Z,10.91
2024-03-05T17:33:40.868Z,10.86
2024-03-05T17:36:08.913Z,10.69
2024-03-05T17:38:36.506Z,10.83
2024-03-05T17:41:04.923Z,11.00
2024-03-05T17:43:32.763Z,11.15
2024-03-05T17:46:02.570Z,11.16
2024-03-05T17:48:31.026Z,11.21
2024-03-05T17:51:02.045Z,11.26
2024-03-05T17:53:29.772Z,10.90
2024-03-05T17:55:57.578Z,11.00
2024-03-05T17:58:25.584Z,11.14
2024-03-05T18:00:53.618Z,11.14
2024-03-05T18:03:22.783Z,11.04
2024-03-05T18:05:50.759Z,10.85
2024-03-05T18:08:18.564Z,10.90
2024-03-05T18:10:47.121Z,11.16
2024-03-05T18:13:17.006Z,10.83
2024-03-05T18:15:46.829Z,11.00
2024-03-05T18:18:15.866Z,11.19
2024-03-05T18:20:45.006Z,11.07
2024-03-05T18:23:14.326Z,11.10
2024-03-05T18:25:43.339Z,11.08
2024-03-05T18:28:11.277Z,11.15
2024-03-05T18:30:40.113Z,11.05
2024-03-05T18:33:09.632Z,11.12
2024-03-05T18:35:40.778Z,11.21
2024-03-05T18:40:41.531Z,11.27
2024-03-05T18:43:11.105Z,11.31
2024-03-05T18:45:41.207Z,11.22
2024-03-05T18:48:10.520Z,11.21
2024-03-05T18:50:39.118Z,11.04
2024-03-05T18:53:09.254Z,11.04
2024-03-05T18:55:38.017Z,11.13
2024-03-05T18:58:09.647Z,10.82
2024-03-05T19:00:38.495Z,9.96
2024-03-05T19:03:06.751Z,9.66
2024-03-05T19:05:37.917Z,10.33
2024-03-05T19:08:08.757Z,10.15
2024-03-05T19:10:38.312Z,10.01
2024-03-05T19:13:07.220Z,9.95
2024-03-05T19:15:34.939Z,9.92
2024-03-05T19:18:05.650Z,10.28
2024-03-05T19:20:33.476Z,10.20
2024-03-05T19:23:01.614Z,9.95
2024-03-05T19:25:29.611Z,10.01
2024-03-05T19:27:57.692Z,8.78
2024-03-05T19:30:25.660Z,7.80
2024-03-05T19:32:53.421Z,7.75
2024-03-05T19:35:26.368Z,7.42
2024-03-05T19:37:55.168Z,7.64
2024-03-05T19:40:25.337Z,7.36
2024-03-05T19:42:59.246Z,7.06
2024-03-05T19:45:30.833Z,6.95
2024-03-05T19:47:59.278Z,6.93
2024-03-05T19:50:28.037Z,6.92
2024-03-05T19:52:57.469Z,6.84
2024-03-05T19:55:25.584Z,7.61
2024-03-05T19:57:53.629Z,7.19
2024-03-05T20:00:25.046Z,7.55
2024-03-05T20:02:55.082Z,7.23
2024-03-05T20:05:23.800Z,7.08
2024-03-05T20:07:53.612Z,7.24
2024-03-05T20:10:22.636Z,7.35
2024-03-05T20:12:50.580Z,7.56
2024-03-05T20:15:19.090Z,7.33
2024-03-05T20:17:47.618Z,7.00
2024-03-05T20:20:19.392Z,6.94
2024-03-05T20:22:49.103Z,6.87
2024-03-05T20:25:22.568Z,6.80
2024-03-05T20:27:52.558Z,6.79
2024-03-05T20:30:20.874Z,6.84
2024-03-05T20:32:48.966Z,6.77
2024-03-05T20:35:18.473Z,6.83
2024-03-05T20:37:51.919Z,6.71
2024-03-05T20:40:23.959Z,6.69
2024-03-05T20:42:51.709Z,7.21
2024-03-05T20:45:20.041Z,7.00
2024-03-05T20:47:49.699Z,7.28
2024-03-05T20:50:19.408Z,7.33
2024-03-05T20:52:47.168Z,8.04
2024-03-05T20:55:14.787Z,8.60
2024-03-05T20:57:46.109Z,9.18
2024-03-05T21:00:21.851Z,9.15
2024-03-05T21:02:53.039Z,9.29
2024-03-05T21:05:20.873Z,8.82
2024-03-05T21:07:55.133Z,8.77
2024-03-05T21:10:23.149Z,8.04
2024-03-05T21:12:50.880Z,7.15
2024-03-05T21:15:21.575Z,6.88
2024-03-05T21:17:49.602Z,6.78
2024-03-05T21:20:17.611Z,6.93
2024-03-05T21:22:45.697Z,7.98
2024-03-05T21:25:13.394Z,8.19
2024-03-05T21:27:42.081Z,8.68
2024-03-05T21:30:10.639Z,8.69
2024-03-05T21:32:38.417Z,8.59
2024-03-05T21:35:06.975Z,9.05
2024-03-05T21:37:37.146Z,8.91
2024-03-05T21:40:08.946Z,9.33
2024-03-05T21:42:36.757Z,9.36
2024-03-05T21:45:04.724Z,9.55
2024-03-05T21:47:32.533Z,9.77
2024-03-05T21:50:01.288Z,10.11
2024-03-05T21:52:29.210Z,10.38
2024-03-05T21:54:56.768Z,10.38
2024-03-05T21:57:24.451Z,9.89
2024-03-05T21:59:52.140Z,9.68
2024-03-05T22:02:19.722Z,9.95
2024-03-05T22:04:47.375Z,9.70
2024-03-05T22:07:15.046Z,9.87
2024-03-05T22:09:42.780Z,10.12
2024-03-05T22:12:10.588Z,10.20
2024-03-05T22:14:39.614Z,10.01
2024-03-05T22:17:10.146Z,9.73
2024-03-05T22:19:38.374Z,9.68
2024-03-05T22:22:06.197Z,9.76
2024-03-05T22:24:33.826Z,9.18
2024-03-05T22:27:01.533Z,8.42
2024-03-05T22:29:29.281Z,9.31
2024-03-05T22:31:57.303Z,9.20
2024-03-05T22:34:25.314Z,9.38
2024-03-05T22:36:53.037Z,8.76
2024-03-05T22:39:20.983Z,8.05
2024-03-05T22:41:48.742Z,8.40
2024-03-05T22:44:16.550Z,8.83
2024-03-05T22:46:44.243Z,9.21
2024-03-05T22:49:12.058Z,9.16
2024-03-05T22:51:39.605Z,9.19
2024-03-05T22:54:07.539Z,9.16
2024-03-05T22:56:35.142Z,9.12
2024-03-05T22:59:02.803Z,9.29
2024-03-05T23:01:30.641Z,9.32
2024-03-05T23:03:58.287Z,8.84
2024-03-05T23:06:26.803Z,8.37
2024-03-05T23:08:55.180Z,8.35
2024-03-05T23:11:22.922Z,7.97
2024-03-05T23:13:50.648Z,7.84
2024-03-05T23:16:18.233Z,8.34
2024-03-05T23:18:45.769Z,8.67
2024-03-05T23:21:13.321Z,8.19
2024-03-05T23:23:43.874Z,8.24
2024-03-05T23:26:11.724Z,8.98
2024-03-05T23:28:40.211Z,9.32
2024-03-05T23:31:07.993Z,9.32
2024-03-05T23:33:35.827Z,8.51
2024-03-05T23:36:03.478Z,8.35
2024-03-05T23:38:31.804Z,7.92
2024-03-05T23:41:00.143Z,6.97
2024-03-05T23:43:27.948Z,6.94
2024-03-05T23:45:55.796Z,7.23
2024-03-05T23:48:23.463Z,8.25
2024-03-05T23:50:51.060Z,7.69
2024-03-05T23:53:19.425Z,7.25
2024-03-05T23:55:47.211Z,7.07
2024-03-05T23:58:15.013Z,6.65
